Flora Municipal, IL

12:27 PM CDT am 16. September 2014 (GMT -0500)
Olney-Noble | Change Station
CLOSE
Current Station
Flughafen
Location: Olney-Noble,
Höhe: 482 ft
Wetterstationen in der Umgebung

Höhe 482 ft 38.72 °N, 88.18 °W | Updated 12 minutes ago

Heiter
Heiter
59 °F
gefühlte 59 °F
N
0
Wind Wechselnd Wind aus Nord

Heute
Max. -- | schwach -- °F
--% Regenrisiko
Gestern
Max. -- | schwach -- °F
Precip. -- inch
6:36 AM 7:00 PM
Letztes Viertel, 44% visible
Druck 30.21 inch
Sichtweite 10.0 Meilen
Wolken Bedeckt 2200 ft
Taupunkt 52 °F
Feuchtigkeit 77%
Regen 0.00 inch
Schneehöhe Nicht verfügbar..
UV 3 von 12
Pollen 6.80 von 12
Luftqualität Nicht verfügbar..
Flu Activity Nicht verfügbar..
METAR KOLY 161715Z AUTO 00000KT 10SM OVC022 15/11 A3021 RMK AO2

More Conditions Fewer Conditions

Druck 30.21 inch
Sichtweite 10.0 Meilen
Wolken Bedeckt 2200 ft
Taupunkt 52 °F
Feuchtigkeit 77%
Regen 0.00 inch
Schneehöhe Nicht verfügbar..
UV 3 von 12
Pollen 6.80 von 12
Luftqualität Nicht verfügbar..
Flu Activity Nicht verfügbar..
METAR KOLY 161715Z AUTO 00000KT 10SM OVC022 15/11 A3021 RMK AO2

More Conditions Fewer Conditions

10-Day Weather Forecast

Almanac

Astronomie

Sep. 16, 2014 Aufgang Untergang
Genaue Zeit 06:36 CDT 19:00 CDT
Bürgerliche Dämmerung 06:09 CDT 19:26 CDT
Nautische Dämmerung 05:38 CDT 19:58 CDT
Astronomische Dämmerung 05:06 CDT 20:30 CDT
Mond kein Mondaufgang 14:21 CDT
Länge des sichtbaren Lichts 13h 17m
Tageslänge
12h 24m
Tomorrow will be 2m 29s shorter.
Letztes Viertel, 44% of the Moon is Illuminated
Heute
Letztes Viertel
Sept 24
Neu
Okt 1
Erstes Viertel
Okt 8
Vollmond
Okt 15
Letztes Viertel

Heutige Rekorde

State Highs State Lows

Community

WunderPhotos

Upload Photos

1,753,838 Fotos hochgeladen!

Nearby

Schneehöhe

Station Depth Höhe
Kein Neuschnee gemeldet.

Erdbebenaktivität

Stadt Distance Mag. Time & Date
No recent earthquake activity has been reported nearby.
Minimum magnitude displayed is 2.5.

küstennahe Wassertemperaturen

Ort Temperatur
Kein Stationsbericht

Wetterstationen in der Umgebung